Main page
Satellite images 10-day forecastsClimateMarine weather Cyclones Lightning AirportsFAQ Newsletter About
Weather : Europe Africa North America South America Asia Australia-Oceania Others
Languages Contact

Bordeaux, France

Bordeaux–Mérignac Airport

latitude: 44-50N, longitude: 000-42W, elevation: 49 m


METAR: LFBD 062300Z AUTO VRB01KT 9999 NSC 09/07 Q1023
TAF: LFBD 061700Z 0618/0724 27012KT 9999 SCT030 BECMG 0618/0621 33005KT CAVOK BECMG 0706/0709 10010KT BECMG 0722/0724 FEW090CB

Time: 01:33 (23:33 UTC)

Current weather observation

The report was made 33 minutes ago, at 23:00 UTC
Wind 1 kt from variable directions
Temperature 9°C
Humidity 87%
Pressure 1023 hPa
Visibility 10 km or more

Change units

Forecast

The report was made 6 hours and 33 minutes ago, at 17:00 UTC
Forecast valid from 06 at 18 UTC to 07 at 24 UTC
Wind 12 kt from the West
Visibility 10 km or more
Scattered clouds at a height of 3000 ft
Becoming
from 06 at 18 UTC to 06 at 21 UTC
Wind 5 kt from the North/Northwest
Visibility 10 km or more
no clouds below 1500 m and no cumulonimbus
Becoming
from 07 at 06 UTC to 07 at 09 UTC
Wind 10 kt from the East
Becoming
from 07 at 22 UTC to 07 at 24 UTC
Few clouds at a height of 9000 ft, Cumulonimbus.
The information on this site is subject to a disclaimer
Weather : Europe Africa North America South America Asia Australia-Oceania Others
Satellite images 10-day forecastsClimateMarine weather Cyclones Lightning AirportsFAQ Languages Contact Newsletter About